Time;durP1;ratioP1;P1;durP2;ratioP2;P2;SDS_P1;SDS_P2;PMS_P1;PMS_P2;Temp;Humidity;BMP_temperature;BMP_pressure;BME280_temperature;BME280_humidity;BME280_pressure;Samples;Min_cycle;Max_cycle;Signal;HPM_P1;HPM_P2
2022/08/18 00:00:17;;;;;;;6.20;4.63;;;;;;;23.65;54.48;100178.34;4147538;28;20124;-64
2022/08/18 00:02:24;;;;;;;5.10;4.32;;;;;;;23.65;54.36;100178.34;4145831;28;20071;-64
2022/08/18 00:04:34;;;;;;;8.02;3.70;;;;;;;23.58;54.38;100171.59;4139780;28;20484;-64
2022/08/18 00:06:50;;;;;;;6.15;4.15;;;;;;;23.48;54.72;100178.25;4145089;28;20041;-64
2022/08/18 00:08:53;;;;;;;4.70;3.85;;;;;;;23.52;54.55;100180.72;4147780;28;20037;-64
2022/08/18 00:10:57;;;;;;;7.95;4.07;;;;;;;23.53;54.38;100184.22;4138865;28;20539;-65
2022/08/18 00:13:00;;;;;;;5.35;3.55;;;;;;;23.50;54.78;100173.75;4146082;28;20040;-65
2022/08/18 00:15:05;;;;;;;7.15;4.43;;;;;;;23.38;54.63;100169.84;4145766;28;20471;-65
2022/08/18 00:17:09;;;;;;;6.13;3.97;;;;;;;23.41;54.63;100175.03;4129235;28;20050;-65
2022/08/18 00:19:12;;;;;;;6.47;3.55;;;;;;;23.39;54.94;100163.59;4141503;28;20043;-65
2022/08/18 00:21:15;;;;;;;5.47;4.00;;;;;;;23.36;55.00;100163.72;4146174;28;20052;-65
2022/08/18 00:23:18;;;;;;;7.47;4.50;;;;;;;23.38;55.11;100153.06;4147397;28;20048;-64
2022/08/18 00:25:21;;;;;;;6.40;4.18;;;;;;;23.34;55.45;100153.19;4147193;28;20136;-64
2022/08/18 00:27:26;;;;;;;6.53;4.38;;;;;;;23.37;55.41;100141.59;4139471;28;20053;-64
2022/08/18 00:29:30;;;;;;;7.35;4.00;;;;;;;23.28;55.41;100132.25;4147288;28;20038;-64
2022/08/18 00:31:33;;;;;;;5.80;3.80;;;;;;;23.23;55.93;100139.56;4147640;28;20042;-64
2022/08/18 00:33:38;;;;;;;5.00;4.15;;;;;;;23.23;56.55;100134.25;4147317;28;20041;-64
2022/08/18 00:35:40;;;;;;;;;;;;;;;23.14;57.08;100131.97;4145815;28;20500;-64
2022/08/18 00:37:44;;;;;;;7.47;4.30;;;;;;;23.17;57.36;100132.72;4141642;28;20100;-64
2022/08/18 00:39:47;;;;;;;6.85;4.50;;;;;;;23.13;57.33;100139.09;4139555;28;20061;-64
2022/08/18 00:41:50;;;;;;;13.32;5.13;;;;;;;23.18;57.47;100136.22;4147429;28;20512;-64
2022/08/18 00:43:55;;;;;;;7.20;4.00;;;;;;;23.19;57.31;100132.66;4131535;28;20042;-69
2022/08/18 00:45:58;;;;;;;7.85;4.05;;;;;;;23.24;57.53;100141.25;4135375;28;20042;-64
2022/08/18 00:48:05;;;;;;;7.88;4.68;;;;;;;23.30;58.22;100143.63;4146871;28;20050;-64
2022/08/18 00:50:10;;;;;;;;;;;;;;;23.33;57.29;100156.78;4133217;28;20096;-64
2022/08/18 00:52:17;;;;;;;6.20;4.22;;;;;;;23.30;57.64;100162.19;4147116;28;19933;-64
2022/08/18 00:54:24;;;;;;;11.90;5.25;;;;;;;23.35;57.61;100162.03;4147814;28;20061;-64
2022/08/18 00:56:32;;;;;;;7.18;5.30;;;;;;;23.26;57.83;100168.59;4147462;28;20042;-64
2022/08/18 00:58:39;;;;;;;5.97;4.20;;;;;;;23.22;57.76;100168.78;4144788;28;20042;-64
2022/08/18 01:00:43;;;;;;;5.57;4.03;;;;;;;23.11;58.01;100174.53;4142736;28;20549;-64
2022/08/18 01:02:51;;;;;;;6.60;4.45;;;;;;;23.12;58.45;100189.53;4147086;28;20042;-64
2022/08/18 01:05:01;;;;;;;8.93;4.45;;;;;;;23.09;58.32;100181.69;4147201;28;20061;-64
2022/08/18 01:07:11;;;;;;;11.85;5.00;;;;;;;23.05;58.12;100180.94;4147392;28;20042;-64
2022/08/18 01:09:16;;;;;;;7.75;4.80;;;;;;;22.98;58.53;100172.41;4146474;28;20038;-64
2022/08/18 01:11:18;;;;;;;4.35;3.60;;;;;;;22.86;58.79;100169.38;4150063;28;20038;-64
2022/08/18 01:13:26;;;;;;;6.93;4.47;;;;;;;22.84;59.01;100174.75;4139738;28;20046;-65
2022/08/18 01:15:29;;;;;;;5.22;3.92;;;;;;;22.62;59.40;100172.97;4145980;28;20058;-64
2022/08/18 01:22:25;;;;;;;6.25;4.35;;;;;;;22.80;59.21;100184.59;4145154;28;20044;-64
2022/08/18 01:26:54;;;;;;;7.05;4.30;;;;;;;22.64;59.23;100172.91;4147084;28;20042;-65
2022/08/18 01:29:04;;;;;;;7.05;4.40;;;;;;;22.69;58.77;100178.88;4146718;28;20042;-64
2022/08/18 01:31:09;;;;;;;5.10;3.90;;;;;;;22.58;59.05;100173.16;4146880;28;20530;-64
2022/08/18 01:33:11;;;;;;;;;;;;;;;22.55;59.12;100171.50;4150418;28;20046;-64
2022/08/18 01:35:17;;;;;;;7.30;5.00;;;;;;;22.52;59.15;100182.22;4150370;28;19922;-64
2022/08/18 01:37:23;;;;;;;6.03;4.03;;;;;;;22.54;58.85;100177.72;4150091;28;20045;-65
2022/08/18 01:39:26;;;;;;;7.57;5.03;;;;;;;22.35;59.44;100172.28;4152764;28;20487;-65
2022/08/18 01:41:50;;;;;;;5.90;4.38;;;;;;;22.27;59.50;100164.63;4145308;28;20042;-64
2022/08/18 01:43:53;;;;;;;;;;;;;;;22.07;60.00;100168.03;4149372;28;20092;-64
2022/08/18 01:46:00;;;;;;;5.95;4.45;;;;;;;22.29;59.63;100165.41;4150051;28;20422;-64
2022/08/18 01:48:04;;;;;;;4.28;3.80;;;;;;;22.22;59.84;100171.00;4146924;28;20500;-64
2022/08/18 01:50:09;;;;;;;6.22;4.55;;;;;;;22.16;59.97;100172.09;4130690;28;20042;-64
2022/08/18 01:52:18;;;;;;;5.88;3.90;;;;;;;22.14;60.09;100169.53;4145897;28;20146;-64
2022/08/18 01:54:21;;;;;;;9.48;4.45;;;;;;;22.40;59.43;100174.75;4149522;28;20037;-64
2022/08/18 01:56:25;;;;;;;9.48;4.63;;;;;;;22.18;59.82;100164.97;4149924;28;20049;-64
2022/08/18 01:58:31;;;;;;;7.75;5.18;;;;;;;22.22;59.52;100161.28;4146355;28;20041;-64
2022/08/18 02:00:35;;;;;;;5.72;4.03;;;;;;;22.29;59.64;100157.47;4144037;28;20117;-64
2022/08/18 02:02:40;;;;;;;4.78;3.60;;;;;;;22.30;59.65;100158.34;4149531;28;20508;-65
2022/08/18 02:04:44;;;;;;;6.30;4.28;;;;;;;22.34;59.35;100156.44;4149721;28;20050;-64
2022/08/18 02:06:47;;;;;;;7.95;4.65;;;;;;;22.15;59.98;100154.47;4132367;28;20077;-64
2022/08/18 02:08:50;;;;;;;6.57;4.00;;;;;;;22.27;59.67;100161.97;4149163;28;20049;-64
2022/08/18 02:10:57;;;;;;;6.15;4.63;;;;;;;22.28;59.70;100155.75;4142182;28;20488;-64
2022/08/18 02:13:00;;;;;;;7.40;4.53;;;;;;;22.18;59.68;100159.69;4141359;28;20046;-65
2022/08/18 02:15:06;;;;;;;7.10;4.50;;;;;;;22.24;59.84;100158.56;4149609;28;20407;-65
2022/08/18 02:17:12;;;;;;;7.60;4.40;;;;;;;22.34;59.46;100149.41;4149413;28;20045;-65
2022/08/18 02:19:15;;;;;;;6.15;4.75;;;;;;;22.28;59.72;100149.56;4148425;28;20124;-65
2022/08/18 02:21:20;;;;;;;7.70;4.60;;;;;;;22.33;59.51;100157.38;4148178;28;20088;-65
2022/08/18 02:23:23;;;;;;;7.03;4.90;;;;;;;22.37;59.60;100148.38;4148035;28;20041;-64
2022/08/18 02:25:26;;;;;;;6.38;4.50;;;;;;;22.36;59.04;100152.81;4148418;28;20046;-64
2022/08/18 02:27:29;;;;;;;5.32;4.18;;;;;;;22.38;58.78;100152.75;4149322;28;20488;-64
2022/08/18 02:29:35;;;;;;;6.47;4.43;;;;;;;22.33;58.81;100154.72;4147451;28;20053;-63
2022/08/18 02:31:40;;;;;;;4.78;4.10;;;;;;;22.28;58.92;100163.69;4146535;28;20038;-63
2022/08/18 02:33:43;;;;;;;6.68;4.50;;;;;;;22.22;59.12;100160.41;4140424;28;20064;-64
2022/08/18 02:35:54;;;;;;;6.22;4.10;;;;;;;22.25;59.10;100168.25;4149344;28;20439;-64
2022/08/18 02:37:58;;;;;;;6.97;4.40;;;;;;;22.33;58.93;100174.13;4146909;28;20040;-64
2022/08/18 02:40:01;;;;;;;;;;;;;;;22.13;59.23;100170.44;4147396;28;20045;-64
2022/08/18 02:42:06;;;;;;;7.05;4.03;;;;;;;22.06;59.48;100165.44;4147331;28;20004;-64
2022/08/18 02:44:09;;;;;;;7.25;5.18;;;;;;;22.13;59.43;100172.22;4146738;28;20053;-63
2022/08/18 02:46:12;;;;;;;6.68;4.63;;;;;;;22.22;59.18;100161.28;4147671;28;20040;-64
2022/08/18 02:48:18;;;;;;;7.22;4.35;;;;;;;22.26;59.09;100172.63;4147788;28;20100;-64
2022/08/18 02:50:21;;;;;;;6.55;4.38;;;;;;;22.09;59.58;100170.63;4148772;28;20049;-64
2022/08/18 02:52:25;;;;;;;8.00;4.10;;;;;;;21.98;60.01;100163.09;4146682;28;20121;-64
2022/08/18 02:54:28;;;;;;;7.75;4.32;;;;;;;22.05;59.75;100161.94;4147754;28;20426;-64
2022/08/18 02:56:31;;;;;;;5.35;4.00;;;;;;;22.12;59.60;100167.84;4147759;28;20083;-64
2022/08/18 02:58:44;;;;;;;5.90;4.10;;;;;;;21.96;60.02;100170.22;4148573;28;20053;-64
2022/08/18 03:00:47;;;;;;;6.47;4.63;;;;;;;22.07;59.70;100165.38;4148974;28;20547;-64
2022/08/18 03:02:52;;;;;;;7.77;5.00;;;;;;;22.11;59.80;100163.50;4147549;28;20508;-64
2022/08/18 03:04:56;;;;;;;7.43;5.00;;;;;;;22.19;59.68;100166.69;4141358;28;20401;-64
2022/08/18 03:07:01;;;;;;;7.72;4.68;;;;;;;22.05;60.05;100166.34;4160077;28;20079;-64
2022/08/18 03:09:05;;;;;;;5.60;4.15;;;;;;;22.02;60.05;100159.41;4148484;28;20491;-64
2022/08/18 03:11:08;;;;;;;4.75;3.88;;;;;;;21.84;60.65;100155.66;4148705;28;20125;-64
2022/08/18 03:13:12;;;;;;;9.77;4.07;;;;;;;21.83;60.87;100163.66;4146978;28;20137;-64
2022/08/18 03:15:15;;;;;;;6.20;4.25;;;;;;;21.87;60.78;100157.34;4148417;28;20042;-64
2022/08/18 03:17:18;;;;;;;8.45;4.38;;;;;;;22.03;60.47;100149.69;4147046;28;20048;-64
2022/08/18 03:19:22;;;;;;;5.57;3.95;;;;;;;21.90;60.98;100150.16;4148446;28;20042;-64
2022/08/18 03:21:29;;;;;;;7.55;4.40;;;;;;;21.96;60.77;100149.91;4148588;28;20069;-64
2022/08/18 03:23:31;;;;;;;8.63;4.78;;;;;;;22.03;60.61;100144.38;4148181;28;20088;-64
2022/08/18 03:25:35;;;;;;;5.75;4.10;;;;;;;22.06;60.48;100158.34;4148827;28;20037;-64
2022/08/18 03:27:38;;;;;;;5.32;4.25;;;;;;;22.07;60.61;100152.13;4148148;28;20068;-64
2022/08/18 03:29:40;;;;;;;6.53;4.30;;;;;;;22.17;60.21;100157.94;4138770;28;20040;-64
2022/08/18 03:31:44;;;;;;;7.55;5.22;;;;;;;22.25;60.13;100155.88;4146641;28;20065;-64
2022/08/18 03:33:47;;;;;;;6.00;4.60;;;;;;;22.06;60.69;100154.84;4148032;28;20038;-63
2022/08/18 03:35:51;;;;;;;5.82;4.45;;;;;;;21.98;60.86;100149.84;4147096;28;20065;-64
2022/08/18 03:37:58;;;;;;;7.72;4.45;;;;;;;21.97;61.12;100148.97;4147033;28;20125;-65
2022/08/18 03:40:01;;;;;;;6.50;4.28;;;;;;;21.96;61.03;100141.97;4145627;28;20056;-74
2022/08/18 03:42:04;;;;;;;6.13;4.57;;;;;;;21.99;61.26;100145.41;4155058;28;20492;-67
2022/08/18 03:44:07;;;;;;;5.63;4.40;;;;;;;21.92;61.29;100147.44;4146509;28;20053;-67
2022/08/18 03:46:13;;;;;;;6.78;5.20;;;;;;;21.99;61.32;100148.06;4144759;28;20435;-67
2022/08/18 03:48:17;;;;;;;8.30;5.50;;;;;;;21.80;62.04;100148.78;4139412;28;20053;-67
2022/08/18 03:50:20;;;;;;;6.32;3.97;;;;;;;21.64;62.24;100145.84;4148229;28;20038;-67
2022/08/18 03:52:23;;;;;;;7.97;4.47;;;;;;;21.76;61.98;100155.09;4135064;28;20056;-67
2022/08/18 03:54:28;;;;;;;6.20;4.60;;;;;;;21.83;61.69;100153.94;4140643;28;20299;-67
2022/08/18 03:56:33;;;;;;;6.03;4.88;;;;;;;21.92;61.62;100145.66;4135151;28;20093;-68
2022/08/18 03:58:36;;;;;;;5.95;4.55;;;;;;;21.96;61.87;100141.09;4147517;28;20063;-67
2022/08/18 04:00:39;;;;;;;6.05;4.95;;;;;;;22.04;61.47;100133.72;4144067;28;20057;-68
2022/08/18 04:02:42;;;;;;;6.80;4.72;;;;;;;22.05;61.45;100142.53;4146188;28;20046;-67
2022/08/18 04:04:45;;;;;;;6.05;4.38;;;;;;;22.01;61.52;100130.34;4147953;28;20045;-67
2022/08/18 04:06:53;;;;;;;8.73;4.90;;;;;;;21.90;61.87;100136.94;4147696;28;20053;-67
2022/08/18 04:08:59;;;;;;;7.15;5.07;;;;;;;21.91;61.76;100130.69;4147308;28;20038;-67
2022/08/18 04:11:03;;;;;;;6.43;4.90;;;;;;;21.96;61.69;100123.44;4142684;28;20046;-68
2022/08/18 04:13:06;;;;;;;7.85;4.65;;;;;;;21.91;61.90;100120.09;4166143;28;20045;-68
2022/08/18 04:15:09;;;;;;;5.80;4.50;;;;;;;21.90;62.05;100113.09;4146687;28;20042;-68
2022/08/18 04:17:12;;;;;;;7.67;4.40;;;;;;;22.02;61.70;100125.00;4145072;28;20046;-67
2022/08/18 04:19:16;;;;;;;11.35;5.60;;;;;;;22.04;61.78;100125.78;4139318;28;20080;-68
2022/08/18 04:21:31;;;;;;;7.03;4.85;;;;;;;21.94;62.23;100132.38;4142218;28;20030;-68
2022/08/18 04:23:34;;;;;;;6.85;5.22;;;;;;;21.86;62.44;100127.38;4145791;28;20077;-68
2022/08/18 04:25:45;;;;;;;5.63;4.68;;;;;;;21.77;63.00;100127.69;4148013;28;20069;-68
2022/08/18 04:27:50;;;;;;;5.78;5.07;;;;;;;21.73;63.20;100144.63;4147899;28;20034;-68
2022/08/18 04:29:55;;;;;;;6.75;4.95;;;;;;;21.66;63.63;100141.34;4150472;28;20061;-68
2022/08/18 04:32:03;;;;;;;6.07;4.55;;;;;;;21.61;64.20;100145.91;4147620;28;20030;-67
2022/08/18 04:34:06;;;;;;;7.40;5.80;;;;;;;21.58;64.18;100144.28;4146717;28;20124;-67
2022/08/18 04:36:11;;;;;;;8.18;5.70;;;;;;;21.70;63.95;100150.00;4147714;28;20524;-67
2022/08/18 04:38:20;;;;;;;11.23;5.75;;;;;;;21.69;63.94;100158.88;4147898;28;20049;-67
2022/08/18 04:40:25;;;;;;;7.90;5.25;;;;;;;21.59;64.01;100161.84;4147878;28;20151;-67
2022/08/18 04:42:28;;;;;;;8.25;4.97;;;;;;;21.54;64.24;100158.53;4147539;28;20034;-67
2022/08/18 04:44:33;;;;;;;7.18;4.88;;;;;;;21.54;64.22;100163.81;4147758;28;20042;-67
2022/08/18 04:46:38;;;;;;;8.63;5.40;;;;;;;21.57;64.34;100178.72;4146347;28;20038;-67
2022/08/18 04:48:42;;;;;;;7.78;5.50;;;;;;;21.69;64.21;100183.56;4141154;28;20049;-67
2022/08/18 04:50:45;;;;;;;10.70;5.32;;;;;;;21.61;64.16;100181.19;4131441;28;20039;-67
2022/08/18 04:55:13;;;;;;;6.38;5.78;;;;;;;21.63;64.46;100175.00;4121255;28;20149;-67
2022/08/18 04:57:19;;;;;;;8.88;5.05;;;;;;;21.56;64.39;100169.06;4130202;28;20046;-67
2022/08/18 04:59:22;;;;;;;6.63;5.40;;;;;;;21.49;64.68;100173.66;4131370;28;20043;-67
2022/08/18 05:01:29;;;;;;;6.45;4.90;;;;;;;21.46;64.90;100184.34;4149229;28;20403;-67
2022/08/18 05:03:32;;;;;;;6.65;4.90;;;;;;;21.44;65.06;100183.53;4161583;28;20095;-67
2022/08/18 05:05:35;;;;;;;7.07;4.88;;;;;;;21.40;65.06;100190.72;4146970;28;20121;-67
2022/08/18 05:07:44;;;;;;;6.15;5.25;;;;;;;21.34;65.80;100182.16;4150560;28;20042;-67
2022/08/18 05:09:47;;;;;;;14.30;5.97;;;;;;;21.27;66.13;100179.72;4148652;28;20488;-67
2022/08/18 05:11:50;;;;;;;7.25;5.53;;;;;;;21.24;66.40;100176.31;4142341;28;20041;-67
2022/08/18 05:13:55;;;;;;;6.35;5.07;;;;;;;21.17;66.65;100180.06;4142750;28;20048;-67
2022/08/18 05:16:02;;;;;;;6.05;5.20;;;;;;;21.13;66.96;100184.63;4144000;28;20038;-67
2022/08/18 05:18:23;;;;;;;8.75;6.07;;;;;;;21.17;67.23;100196.78;4145428;28;20053;-67
2022/08/18 05:20:28;;;;;;;12.80;6.13;;;;;;;21.17;67.60;100196.78;4156588;28;20043;-67
2022/08/18 05:22:37;;;;;;;8.35;6.68;;;;;;;21.31;67.11;100198.97;4141920;28;20038;-67
2022/08/18 05:24:40;;;;;;;9.13;5.97;;;;;;;21.17;67.41;100186.22;4142571;28;20209;-67
2022/08/18 05:26:44;;;;;;;7.60;5.75;;;;;;;21.08;67.59;100191.81;4149705;28;20696;-67
2022/08/18 05:28:47;;;;;;;7.43;5.97;;;;;;;21.03;67.73;100199.06;4142448;28;20412;-67
2022/08/18 05:30:56;;;;;;;7.25;5.95;;;;;;;21.02;68.09;100198.16;4144189;28;20097;-67
2022/08/18 05:33:03;;;;;;;6.00;5.20;;;;;;;21.06;68.37;100205.09;4144951;28;20034;-67
2022/08/18 05:35:12;;;;;;;6.60;5.28;;;;;;;21.11;68.36;100199.63;4146866;28;20100;-67
2022/08/18 05:37:32;;;;;;;9.90;7.55;;;;;;;21.18;67.71;100190.59;4142309;28;20488;-67
2022/08/18 05:39:46;;;;;;;7.95;5.63;;;;;;;21.11;67.97;100202.28;4143426;28;20096;-67
2022/08/18 05:41:51;;;;;;;8.27;7.03;;;;;;;21.08;68.08;100202.41;4148264;28;20049;-68
2022/08/18 05:43:55;;;;;;;8.50;6.28;;;;;;;21.08;68.27;100207.69;4142489;28;20042;-67
2022/08/18 05:46:01;;;;;;;9.80;7.65;;;;;;;21.23;67.94;100204.53;4142492;28;20035;-67
2022/08/18 05:48:04;;;;;;;10.52;7.18;;;;;;;21.25;67.77;100200.03;4148233;28;20056;-67
2022/08/18 05:50:12;;;;;;;7.72;5.78;;;;;;;21.17;68.24;100195.94;4135090;28;20050;-67
2022/08/18 05:52:19;;;;;;;7.75;6.47;;;;;;;21.03;68.52;100199.91;4148778;28;20046;-67
2022/08/18 05:56:56;;;;;;;8.32;6.10;;;;;;;20.98;68.70;100195.69;4103480;28;20047;-67
2022/08/18 05:59:01;;;;;;;8.73;6.75;;;;;;;20.91;68.91;100187.97;4148034;28;20113;-67
2022/08/18 06:01:08;;;;;;;9.48;7.97;;;;;;;20.87;69.07;100183.69;4151417;28;20468;-67
2022/08/18 06:03:15;;;;;;;8.07;6.97;;;;;;;20.83;69.26;100175.94;4142084;28;20520;-67
2022/08/18 06:05:26;;;;;;;9.90;7.70;;;;;;;20.74;69.64;100179.72;4129324;28;20038;-67
2022/08/18 06:07:35;;;;;;;10.38;7.75;;;;;;;20.74;69.76;100177.94;4144367;28;20042;-67
2022/08/18 06:09:43;;;;;;;12.88;9.13;;;;;;;20.81;69.85;100178.63;4141598;28;20543;-67
2022/08/18 06:11:46;;;;;;;16.90;9.65;;;;;;;20.76;69.92;100164.69;4141455;28;20096;-67
2022/08/18 06:13:49;;;;;;;11.07;8.38;;;;;;;20.86;69.71;100168.75;4149787;28;20037;-67
2022/08/18 06:16:08;;;;;;;12.57;8.50;;;;;;;20.99;69.38;100163.06;4147565;28;20049;-68
2022/08/18 06:18:28;;;;;;;9.25;7.55;;;;;;;21.11;68.89;100165.28;4141271;28;20053;-68
2022/08/18 06:20:48;;;;;;;8.73;7.07;;;;;;;21.05;69.34;100173.44;4163294;28;20515;-67
2022/08/18 06:22:58;;;;;;;10.63;8.00;;;;;;;21.16;69.09;100167.75;4142355;28;20061;-67
2022/08/18 06:25:10;;;;;;;10.00;7.18;;;;;;;21.21;69.04;100176.41;4146675;28;20416;-67
2022/08/18 06:27:20;;;;;;;10.13;7.05;;;;;;;21.31;68.79;100184.91;4141899;28;20053;-67
2022/08/18 06:29:46;;;;;;;8.35;6.65;;;;;;;21.35;68.79;100174.16;4137271;28;20118;-67
2022/08/18 06:32:00;;;;;;;8.20;7.30;;;;;;;21.38;68.55;100179.34;4157882;28;20034;-67
2022/08/18 06:34:12;;;;;;;12.13;7.72;;;;;;;21.42;68.26;100190.66;4147836;28;20484;-68
2022/08/18 06:36:27;;;;;;;10.90;8.48;;;;;;;21.55;67.78;100192.00;4146921;28;20515;-67
2022/08/18 06:38:46;;;;;;;11.85;8.15;;;;;;;21.59;67.69;100182.16;4141160;28;20507;-67
2022/08/18 06:40:59;;;;;;;11.27;9.05;;;;;;;21.58;67.81;100194.53;4152184;28;20064;-62
2022/08/18 06:43:03;;;;;;;6.70;5.50;;;;;;;21.67;66.28;100193.34;4144988;28;20029;-67
2022/08/18 06:45:11;;;;;;;8.65;6.15;;;;;;;21.91;65.05;100194.22;4140052;28;20068;-67
2022/08/18 06:47:27;;;;;;;8.68;6.05;;;;;;;22.15;64.36;100199.50;4152246;28;20499;-67
2022/08/18 06:49:38;;;;;;;8.40;6.13;;;;;;;22.34;63.73;100206.78;4138516;28;20048;-67
2022/08/18 06:51:42;;;;;;;9.20;6.80;;;;;;;22.42;63.65;100205.56;4146710;28;20052;-67
2022/08/18 06:53:56;;;;;;;11.32;7.45;;;;;;;22.45;63.48;100205.44;4146166;28;20072;-67
2022/08/18 06:55:59;;;;;;;11.30;8.60;;;;;;;22.48;63.67;100209.75;4148484;28;20041;-67
2022/08/18 06:58:05;;;;;;;12.45;10.25;;;;;;;22.56;63.23;100212.97;4150722;28;20069;-66
2022/08/18 07:00:25;;;;;;;17.00;10.02;;;;;;;22.40;63.83;100209.19;4145977;28;20038;-66
2022/08/18 07:02:44;;;;;;;10.07;8.95;;;;;;;22.27;63.81;100217.56;4145239;28;20125;-67
2022/08/18 07:05:01;;;;;;;11.88;7.80;;;;;;;22.30;63.66;100208.66;4140514;28;20061;-66
2022/08/18 07:07:29;;;;;;;8.20;7.28;;;;;;;22.39;63.57;100220.72;4140440;28;20048;-67
2022/08/18 07:09:52;;;;;;;8.88;7.28;;;;;;;22.46;63.31;100225.72;4140747;28;20088;-66
2022/08/18 07:12:01;;;;;;;9.05;6.65;;;;;;;22.53;63.21;100233.41;4142949;28;20038;-67
2022/08/18 07:14:14;;;;;;;7.38;6.47;;;;;;;22.56;63.08;100228.88;4141440;28;20067;-67
2022/08/18 07:16:24;;;;;;;8.90;6.60;;;;;;;22.59;63.15;100228.75;4138424;28;20042;-67
2022/08/18 07:18:46;;;;;;;10.35;6.68;;;;;;;22.60;63.01;100225.16;4143247;28;20034;-67
2022/08/18 07:20:53;;;;;;;10.70;9.13;;;;;;;22.62;63.22;100223.31;4141659;28;20044;-67
2022/08/18 07:23:00;;;;;;;10.65;9.52;;;;;;;22.59;63.68;100219.91;4141757;28;20034;-66
2022/08/18 07:25:04;;;;;;;8.20;7.32;;;;;;;22.48;63.55;100217.69;4142570;28;20061;-67
2022/08/18 07:27:11;;;;;;;12.25;10.25;;;;;;;22.50;63.82;100207.91;4143643;28;20354;-67
2022/08/18 07:29:15;;;;;;;9.07;7.75;;;;;;;22.39;63.78;100215.41;4142852;28;20141;-67
2022/08/18 07:31:24;;;;;;;;;;;;;;;22.34;63.80;100217.38;4141024;28;20033;-67
2022/08/18 07:33:27;;;;;;;10.23;7.93;;;;;;;22.45;63.70;100217.81;4157714;28;19935;-67
2022/08/18 07:35:37;;;;;;;10.75;7.40;;;;;;;22.52;63.46;100215.81;4144045;28;20038;-67
2022/08/18 07:37:48;;;;;;;8.07;7.03;;;;;;;22.57;63.69;100221.78;4138163;28;20396;-68
2022/08/18 07:39:57;;;;;;;10.80;7.25;;;;;;;22.58;63.90;100226.16;4142450;28;20133;-68
2022/08/18 07:42:08;;;;;;;10.43;7.85;;;;;;;22.59;64.30;100226.09;4141898;28;20037;-68
2022/08/18 07:44:18;;;;;;;9.77;8.00;;;;;;;22.61;64.34;100221.59;4140988;28;20670;-68
2022/08/18 07:46:30;;;;;;;8.57;7.47;;;;;;;22.60;64.42;100225.16;4142093;28;20041;-68
2022/08/18 07:48:34;;;;;;;10.02;7.05;;;;;;;22.58;64.37;100219.06;4142301;28;20034;-68
2022/08/18 07:50:48;;;;;;;8.50;6.50;;;;;;;22.57;64.55;100225.28;4138751;28;20046;-67
2022/08/18 07:53:11;;;;;;;10.85;7.45;;;;;;;22.59;64.54;100227.88;4140322;28;20092;-67
2022/08/18 07:55:23;;;;;;;;;;;;;;;22.55;64.53;100229.78;4171622;28;20041;-68
2022/08/18 07:57:36;;;;;;;10.80;7.43;;;;;;;22.62;64.59;100231.28;4119291;28;19964;-68
2022/08/18 08:00:03;;;;;;;11.00;7.40;;;;;;;22.62;64.81;100228.63;4145049;28;20046;-68
2022/08/18 08:02:28;;;;;;;12.93;7.75;;;;;;;22.63;64.87;100230.34;4141616;28;20038;-68
2022/08/18 08:04:40;;;;;;;9.48;7.22;;;;;;;22.66;65.17;100234.66;4150284;28;20436;-67
2022/08/18 08:06:48;;;;;;;8.55;6.82;;;;;;;22.66;64.97;100230.22;4148583;28;20034;-67
2022/08/18 08:09:21;;;;;;;10.35;7.22;;;;;;;22.68;65.04;100238.13;4148071;28;20111;-67
2022/08/18 08:11:40;;;;;;;8.27;7.32;;;;;;;22.70;65.12;100235.41;4159433;28;20519;-68
2022/08/18 08:14:01;;;;;;;9.88;8.27;;;;;;;22.62;65.68;100231.28;4144380;28;20503;-67
2022/08/18 08:16:11;;;;;;;10.45;7.13;;;;;;;22.68;64.97;100230.16;4144007;28;20496;-67
2022/08/18 08:18:20;;;;;;;8.18;6.82;;;;;;;22.75;64.90;100233.41;4140821;28;20503;-67
2022/08/18 08:20:30;;;;;;;8.95;7.90;;;;;;;22.80;64.59;100236.75;4143227;28;20256;-67
2022/08/18 08:22:41;;;;;;;9.32;7.82;;;;;;;22.80;64.72;100242.06;4140643;28;20092;-67
2022/08/18 08:24:55;;;;;;;10.07;7.40;;;;;;;22.81;64.92;100241.16;4144545;28;20034;-67
2022/08/18 08:27:09;;;;;;;13.47;8.17;;;;;;;22.81;65.17;100241.16;4145144;28;20463;-67
2022/08/18 08:29:27;;;;;;;9.88;7.95;;;;;;;22.79;64.92;100240.31;4131384;28;20372;-67
2022/08/18 08:31:41;;;;;;;9.45;7.50;;;;;;;22.81;65.08;100243.81;4141409;28;20326;-67
2022/08/18 08:33:49;;;;;;;10.98;7.95;;;;;;;22.82;65.02;100243.72;4141546;28;20113;-67
2022/08/18 08:35:58;;;;;;;9.10;7.50;;;;;;;22.81;65.08;100244.66;4142633;28;20080;-67
2022/08/18 08:38:06;;;;;;;11.63;8.07;;;;;;;22.84;65.43;100243.66;4143169;28;20045;-67
2022/08/18 08:40:38;;;;;;;9.85;8.00;;;;;;;22.81;65.25;100247.28;4141627;28;20045;-67
2022/08/18 08:42:54;;;;;;;12.70;8.10;;;;;;;22.79;65.04;100242.97;4140443;28;20045;-67
2022/08/18 08:45:02;;;;;;;10.13;7.55;;;;;;;22.81;65.10;100255.25;4136228;28;20046;-67
2022/08/18 08:47:10;;;;;;;11.48;7.65;;;;;;;22.81;65.27;100249.09;4143237;28;20510;-67
2022/08/18 08:49:25;;;;;;;8.70;7.40;;;;;;;22.82;65.16;100266.72;4140305;28;20057;-67
2022/08/18 08:51:34;;;;;;;11.98;7.68;;;;;;;22.81;65.29;100262.34;4140060;28;20069;-67
2022/08/18 08:53:43;;;;;;;9.60;7.95;;;;;;;22.82;65.25;100267.59;4143683;28;20048;-67
2022/08/18 08:55:49;;;;;;;10.23;8.43;;;;;;;22.84;65.25;100270.19;4141945;28;20061;-67
2022/08/18 08:58:02;;;;;;;9.73;7.38;;;;;;;22.86;65.33;100272.75;4141274;28;20096;-67
2022/08/18 09:00:09;;;;;;;12.07;8.85;;;;;;;22.82;65.83;100283.50;4136708;28;20042;-66
2022/08/18 09:02:34;;;;;;;14.07;11.07;;;;;;;22.83;66.46;100284.34;4139784;28;20045;-66
2022/08/18 09:05:00;;;;;;;10.70;8.23;;;;;;;22.73;66.38;100283.84;4139687;28;20140;-66
2022/08/18 09:07:27;;;;;;;12.57;7.65;;;;;;;22.73;65.93;100294.44;4139855;28;20057;-66
2022/08/18 09:09:56;;;;;;;14.88;9.73;;;;;;;22.78;65.94;100292.47;4140446;28;20484;-66
2022/08/18 09:12:12;;;;;;;10.52;8.20;;;;;;;22.76;65.63;100294.31;4138275;28;20064;-66
2022/08/18 09:14:45;;;;;;;10.02;7.65;;;;;;;22.75;65.73;100302.31;4141041;28;20037;-66
2022/08/18 09:16:59;;;;;;;11.95;10.68;;;;;;;22.81;65.84;100308.25;4143378;28;20052;-67
2022/08/18 09:19:28;;;;;;;10.98;8.77;;;;;;;22.55;66.20;100311.91;4143559;28;20214;-67
2022/08/18 09:21:43;;;;;;;15.43;8.52;;;;;;;22.48;66.40;100316.56;4139672;28;20034;-66
2022/08/18 09:23:50;;;;;;;16.65;12.10;;;;;;;22.53;66.80;100318.19;4142627;28;20116;-67
2022/08/18 09:25:57;;;;;;;10.98;8.85;;;;;;;22.51;66.71;100326.19;4137145;28;20065;-67
2022/08/18 09:28:10;;;;;;;14.15;11.13;;;;;;;22.54;67.20;100326.06;4140492;28;20049;-68
2022/08/18 09:30:41;;;;;;;13.65;10.93;;;;;;;22.25;68.20;100325.38;4144594;28;20046;-68
2022/08/18 09:32:55;;;;;;;13.80;10.95;;;;;;;22.19;69.15;100325.56;4143265;28;20074;-69
2022/08/18 09:35:24;;;;;;;11.52;9.02;;;;;;;22.19;68.83;100314.97;4141518;28;20037;-68
2022/08/18 09:37:37;;;;;;;10.25;9.25;;;;;;;22.21;69.20;100313.16;4144983;28;20041;-69
2022/08/18 09:42:17;;;;;;;13.57;10.98;;;;;;;22.33;68.83;100300.38;4144072;28;20410;-69
2022/08/18 09:45:00;;;;;;;14.68;10.82;;;;;;;22.41;68.81;100288.59;4140998;28;20499;-69
2022/08/18 09:47:05;;;;;;;17.05;13.43;;;;;;;22.39;69.38;100279.00;4144772;28;20125;-69
2022/08/18 09:49:23;;;;;;;;;;;;;;;22.31;69.27;100274.81;4146013;28;20525;-69
2022/08/18 09:51:35;;;;;;;20.65;16.42;;;;;;;22.34;69.56;100271.22;4148601;28;19925;-69
2022/08/18 09:54:08;;;;;;;19.23;17.30;;;;;;;22.24;69.88;100264.47;4148261;28;20050;-69
2022/08/18 09:56:12;;;;;;;21.42;17.30;;;;;;;22.12;70.60;100268.44;4159520;28;20053;-69
2022/08/18 09:59:00;;;;;;;21.45;19.30;;;;;;;22.08;70.90;100265.06;4147552;28;20434;-69
2022/08/18 10:01:35;;;;;;;22.35;19.98;;;;;;;22.09;70.66;100261.50;4130052;28;20102;-68
2022/08/18 10:03:39;;;;;;;25.58;22.85;;;;;;;22.06;70.71;100271.34;4146419;28;20077;-66
2022/08/18 10:06:03;;;;;;;24.83;21.15;;;;;;;21.99;70.45;100259.22;4146758;28;20042;-66
2022/08/18 10:08:34;;;;;;;79.95;60.03;;;;;;;21.96;69.86;100263.72;4146485;28;20046;-64
2022/08/18 10:10:48;;;;;;;33.42;29.05;;;;;;;21.95;70.18;100266.44;4147003;28;20407;-63
2022/08/18 10:13:23;;;;;;;27.45;24.83;;;;;;;21.90;69.74;100271.03;4146089;28;20557;-65